Time;durP1;ratioP1;P1;durP2;ratioP2;P2;SDS_P1;SDS_P2;PMS_P1;PMS_P2;Temp;Humidity;BMP_temperature;BMP_pressure;BME280_temperature;BME280_humidity;BME280_pressure;Samples;Min_cycle;Max_cycle;Signal;HPM_P1;HPM_P2
2022/04/18 00:00:23;;;;;;;0.85;0.30;;;5.80;56.60;;;;;;5113431;28;20214;-85
2022/04/18 00:02:50;;;;;;;0.40;0.30;;;5.70;57.40;;;;;;5107002;28;20654;-85
2022/04/18 00:05:18;;;;;;;0.30;0.20;;;5.70;58.10;;;;;;5111223;28;20198;-85
2022/04/18 00:07:45;;;;;;;0.30;0.20;;;5.70;58.60;;;;;;5125782;28;20577;-85
2022/04/18 00:10:13;;;;;;;0.30;0.20;;;5.80;58.40;;;;;;5120618;28;20203;-85
2022/04/18 00:12:42;;;;;;;0.70;0.30;;;5.80;57.50;;;;;;5110162;27;20202;-85
2022/04/18 00:15:11;;;;;;;0.30;0.20;;;5.80;57.90;;;;;;5119781;28;20238;-85
2022/04/18 00:17:38;;;;;;;0.30;0.20;;;5.80;58.00;;;;;;5126750;28;20193;-84
2022/04/18 00:20:07;;;;;;;0.30;0.20;;;5.70;58.00;;;;;;5128117;27;20277;-85
2022/04/18 00:22:37;;;;;;;0.40;0.30;;;5.60;58.60;;;;;;5108756;27;20201;-85
2022/04/18 00:25:06;;;;;;;0.47;0.47;;;5.60;58.40;;;;;;5126345;28;20197;-84
2022/04/18 00:27:33;;;;;;;0.43;0.30;;;5.50;58.90;;;;;;5119979;27;20189;-85
2022/04/18 00:30:01;;;;;;;0.30;0.30;;;5.40;58.50;;;;;;5121012;27;20676;-84
2022/04/18 00:32:29;;;;;;;0.30;0.30;;;5.40;58.70;;;;;;5109534;28;20205;-85
2022/04/18 00:34:57;;;;;;;0.30;0.20;;;5.50;57.90;;;;;;5111011;28;20600;-84
2022/04/18 00:37:26;;;;;;;0.30;0.20;;;5.40;57.40;;;;;;5118794;27;20201;-84
2022/04/18 00:39:54;;;;;;;0.30;0.20;;;5.30;58.40;;;;;;5129606;27;20186;-84
2022/04/18 00:42:21;;;;;;;0.60;0.60;;;5.30;58.10;;;;;;5111623;28;20259;-85
2022/04/18 00:44:48;;;;;;;0.30;0.20;;;5.20;58.60;;;;;;5126289;27;20270;-84
2022/04/18 00:47:15;;;;;;;0.30;0.28;;;5.20;58.00;;;;;;5129537;27;20207;-85
2022/04/18 00:49:50;;;;;;;0.75;0.75;;;5.10;58.90;;;;;;5104272;28;20182;-85
2022/04/18 00:52:19;;;;;;;0.30;0.20;;;5.20;58.10;;;;;;5100464;27;20221;-85
2022/04/18 00:54:47;;;;;;;1.00;0.77;;;5.30;57.70;;;;;;5129552;27;20562;-84
2022/04/18 00:57:16;;;;;;;0.40;0.30;;;5.20;58.20;;;;;;5112166;27;20198;-85
2022/04/18 00:59:44;;;;;;;0.30;0.20;;;5.10;59.30;;;;;;5123842;27;20233;-85
2022/04/18 01:02:13;;;;;;;0.85;0.63;;;5.10;59.50;;;;;;5119554;27;20194;-84
2022/04/18 01:04:40;;;;;;;0.30;0.20;;;5.00;60.40;;;;;;5116882;27;20190;-84
2022/04/18 01:07:07;;;;;;;0.40;0.25;;;5.00;59.90;;;;;;5109396;27;20190;-85
2022/04/18 01:09:34;;;;;;;0.30;0.20;;;5.10;60.40;;;;;;5129945;27;20221;-84
2022/04/18 01:12:02;;;;;;;1.05;0.98;;;5.10;59.30;;;;;;5112267;27;20695;-84
2022/04/18 01:14:31;;;;;;;0.30;0.20;;;5.10;58.70;;;;;;5130227;27;20245;-85
2022/04/18 01:16:58;;;;;;;0.30;0.30;;;5.00;58.40;;;;;;5117559;27;20209;-84
2022/04/18 01:19:26;;;;;;;0.80;0.80;;;5.00;58.20;;;;;;5112239;27;20194;-85
2022/04/18 01:21:55;;;;;;;0.50;0.30;;;5.00;58.90;;;;;;5110739;28;20210;-85
2022/04/18 01:30:00;;;;;;;0.43;0.43;;;4.80;58.80;;;;;;5130859;27;20236;-84
2022/04/18 01:32:27;;;;;;;0.30;0.20;;;4.80;58.80;;;;;;5114558;27;20218;-85
2022/04/18 01:34:54;;;;;;;0.30;0.20;;;4.90;59.10;;;;;;5113141;27;20190;-84
2022/04/18 01:37:22;;;;;;;0.30;0.20;;;4.70;59.70;;;;;;5130303;27;20201;-84
2022/04/18 01:39:49;;;;;;;0.50;0.50;;;4.70;59.60;;;;;;5111803;27;20209;-85
2022/04/18 01:42:16;;;;;;;0.30;0.20;;;4.70;60.30;;;;;;5110950;28;20250;-84
2022/04/18 01:44:44;;;;;;;0.30;0.20;;;4.60;60.50;;;;;;5110206;27;20202;-84
2022/04/18 01:47:11;;;;;;;0.40;0.40;;;4.60;60.40;;;;;;5123566;27;20200;-85
2022/04/18 01:49:38;;;;;;;0.30;0.20;;;4.70;59.60;;;;;;5114217;27;20190;-84
2022/04/18 01:52:05;;;;;;;0.47;0.40;;;4.70;59.30;;;;;;5111287;27;20233;-85
2022/04/18 01:54:33;;;;;;;0.88;0.73;;;4.70;59.00;;;;;;5111325;27;20198;-84
2022/04/18 01:57:00;;;;;;;0.30;0.20;;;4.80;59.00;;;;;;5110482;28;20208;-84
2022/04/18 01:59:27;;;;;;;0.30;0.20;;;4.80;58.80;;;;;;5125573;27;20208;-84
2022/04/18 02:01:54;;;;;;;0.30;0.22;;;4.70;58.90;;;;;;5114308;27;20197;-85
2022/04/18 02:04:22;;;;;;;0.30;0.20;;;4.70;58.90;;;;;;5125466;27;20198;-85
2022/04/18 02:06:49;;;;;;;0.40;0.30;;;4.60;59.50;;;;;;5112770;27;20190;-84
2022/04/18 02:09:16;;;;;;;0.60;0.40;;;4.60;59.10;;;;;;5129035;27;20193;-85
2022/04/18 02:11:45;;;;;;;0.40;0.40;;;4.50;59.50;;;;;;5128222;27;20229;-84
2022/04/18 02:14:13;;;;;;;0.30;0.30;;;4.50;60.00;;;;;;5117433;27;20225;-85
2022/04/18 02:16:41;;;;;;;0.30;0.20;;;4.50;59.40;;;;;;5125750;27;20244;-85
2022/04/18 02:19:08;;;;;;;0.47;0.35;;;4.40;60.90;;;;;;5130157;27;20255;-84
2022/04/18 02:21:35;;;;;;;0.82;0.82;;;4.10;61.60;;;;;;5109279;27;20542;-85
2022/04/18 02:24:02;;;;;;;0.30;0.20;;;4.10;62.10;;;;;;5119890;27;20200;-84
2022/04/18 02:26:29;;;;;;;0.30;0.20;;;3.90;62.40;;;;;;5123826;27;20190;-84
2022/04/18 02:28:58;;;;;;;0.30;0.20;;;3.90;62.80;;;;;;5110908;27;20190;-84
2022/04/18 02:31:25;;;;;;;0.63;0.63;;;3.90;63.70;;;;;;5119625;27;20254;-84
2022/04/18 02:33:55;;;;;;;0.30;0.20;;;4.10;64.10;;;;;;5115478;27;20196;-84
2022/04/18 02:36:22;;;;;;;0.30;0.20;;;4.10;64.70;;;;;;5127504;27;20193;-84
2022/04/18 02:38:48;;;;;;;0.30;0.20;;;4.10;64.70;;;;;;5110175;27;20743;-85
2022/04/18 02:41:15;;;;;;;0.30;0.20;;;4.10;63.80;;;;;;5116697;27;20318;-84
2022/04/18 02:43:42;;;;;;;0.30;0.20;;;4.10;64.70;;;;;;5116910;27;20194;-85
2022/04/18 02:46:10;;;;;;;0.30;0.20;;;4.10;64.90;;;;;;5113789;27;20198;-85
2022/04/18 02:48:42;;;;;;;0.55;0.40;;;4.10;65.00;;;;;;5122375;27;20743;-85
2022/04/18 02:51:09;;;;;;;0.30;0.20;;;4.10;64.60;;;;;;5129809;27;20626;-85
2022/04/18 02:53:37;;;;;;;0.30;0.20;;;4.00;64.00;;;;;;5113937;27;20239;-85
2022/04/18 02:56:04;;;;;;;0.40;0.30;;;4.00;64.80;;;;;;5129772;27;20205;-85
2022/04/18 02:58:31;;;;;;;0.30;0.20;;;4.00;65.50;;;;;;5114302;27;20330;-84
2022/04/18 03:00:58;;;;;;;0.70;0.60;;;3.80;65.70;;;;;;5112475;27;20271;-85
2022/04/18 03:03:26;;;;;;;0.30;0.20;;;3.60;66.60;;;;;;5114133;27;20221;-84
2022/04/18 03:05:53;;;;;;;0.30;0.20;;;3.60;68.10;;;;;;5119745;27;20213;-85
2022/04/18 03:08:20;;;;;;;0.40;0.22;;;3.50;69.00;;;;;;5128019;27;20250;-84
2022/04/18 03:11:06;;;;;;;0.60;0.30;;;3.40;70.10;;;;;;5129497;27;20235;-85
2022/04/18 03:13:34;;;;;;;0.30;0.20;;;3.50;70.80;;;;;;5123570;27;20247;-85
2022/04/18 03:16:01;;;;;;;0.43;0.43;;;3.60;70.60;;;;;;5113833;27;20189;-84
2022/04/18 03:18:30;;;;;;;0.30;0.20;;;3.70;69.20;;;;;;5115395;27;20193;-85
2022/04/18 03:20:57;;;;;;;0.93;0.93;;;3.80;68.70;;;;;;5125443;27;20735;-84
2022/04/18 03:23:24;;;;;;;0.30;0.25;;;3.70;68.20;;;;;;5124464;27;20189;-84
2022/04/18 03:25:51;;;;;;;0.40;0.20;;;3.80;68.20;;;;;;5128988;27;20200;-85
2022/04/18 03:28:18;;;;;;;0.30;0.30;;;3.70;69.50;;;;;;5122445;27;20281;-85
2022/04/18 03:30:45;;;;;;;0.40;0.35;;;3.70;68.60;;;;;;5108755;28;20216;-85
2022/04/18 03:33:12;;;;;;;0.30;0.30;;;3.70;68.70;;;;;;5123001;27;20217;-84
2022/04/18 03:39:50;;;;;;;0.30;0.20;;;3.70;68.40;;;;;;5128630;27;20238;-85
2022/04/18 03:41:12;;;;;;;0.55;0.50;;;3.70;68.30;;;;;;5113791;27;20206;-85
2022/04/18 03:43:39;;;;;;;0.30;0.22;;;3.60;69.60;;;;;;5120449;27;20285;-85
2022/04/18 03:46:06;;;;;;;0.30;0.20;;;3.60;69.20;;;;;;5108871;28;20665;-85
2022/04/18 03:48:32;;;;;;;0.30;0.20;;;3.60;68.10;;;;;;5114872;27;20201;-84
2022/04/18 03:51:01;;;;;;;0.30;0.20;;;3.70;67.40;;;;;;5127387;27;20296;-85
2022/04/18 03:53:28;;;;;;;0.52;0.50;;;3.70;68.10;;;;;;5113930;27;20683;-84
2022/04/18 03:55:55;;;;;;;0.30;0.30;;;3.70;69.80;;;;;;5126269;27;20704;-84
2022/04/18 03:58:22;;;;;;;0.30;0.28;;;3.60;70.00;;;;;;5114581;27;20272;-85
2022/04/18 04:00:48;;;;;;;0.30;0.20;;;3.60;70.20;;;;;;5114638;28;20190;-85
2022/04/18 04:03:15;;;;;;;0.30;0.28;;;3.40;70.20;;;;;;5112239;28;20274;-85
2022/04/18 04:05:42;;;;;;;0.32;0.32;;;3.30;70.90;;;;;;5124618;27;20228;-84
2022/04/18 04:08:10;;;;;;;0.40;0.35;;;3.20;71.60;;;;;;5127352;27;20675;-84
2022/04/18 04:10:37;;;;;;;0.30;0.20;;;3.10;72.50;;;;;;5123572;27;20844;-85
2022/04/18 04:13:06;;;;;;;0.30;0.30;;;3.10;72.90;;;;;;5123655;27;20335;-85
2022/04/18 04:15:33;;;;;;;0.30;0.20;;;3.10;73.50;;;;;;5127159;27;20680;-85
2022/04/18 04:18:00;;;;;;;0.30;0.30;;;3.10;73.30;;;;;;5131354;27;20201;-84
2022/04/18 04:20:27;;;;;;;0.50;0.50;;;3.50;73.70;;;;;;5129088;27;20193;-85
2022/04/18 04:22:54;;;;;;;0.30;0.30;;;3.00;73.70;;;;;;5132546;27;20193;-85
2022/04/18 04:25:22;;;;;;;0.30;0.20;;;2.90;73.80;;;;;;5122492;27;20263;-85
2022/04/18 04:27:49;;;;;;;1.00;0.85;;;3.20;73.10;;;;;;5121870;27;20225;-85
2022/04/18 04:30:16;;;;;;;0.30;0.30;;;3.40;71.50;;;;;;5132889;27;20677;-84
2022/04/18 04:32:42;;;;;;;1.73;0.80;;;3.40;70.40;;;;;;5124617;27;20712;-84
2022/04/18 04:35:11;;;;;;;0.30;0.30;;;3.50;69.90;;;;;;5118613;27;20733;-85
2022/04/18 04:37:38;;;;;;;0.30;0.30;;;3.50;69.50;;;;;;5114004;27;20205;-85
2022/04/18 04:40:06;;;;;;;0.30;0.20;;;3.50;70.40;;;;;;5128566;27;20216;-85
2022/04/18 04:42:34;;;;;;;0.30;0.30;;;3.50;72.00;;;;;;5113707;27;20233;-85
2022/04/18 04:45:01;;;;;;;0.40;0.38;;;3.50;72.30;;;;;;5132571;27;20630;-85
2022/04/18 04:47:28;;;;;;;0.30;0.20;;;3.50;70.50;;;;;;5130667;27;20257;-84
2022/04/18 04:49:54;;;;;;;0.30;0.20;;;3.50;72.10;;;;;;5131021;27;20194;-84
2022/04/18 04:52:21;;;;;;;0.30;0.20;;;3.60;73.20;;;;;;5111277;28;20305;-84
2022/04/18 04:54:49;;;;;;;0.30;0.30;;;3.60;72.70;;;;;;5113159;27;20194;-84
2022/04/18 04:57:16;;;;;;;0.30;0.30;;;3.50;71.80;;;;;;5113521;27;20205;-84
2022/04/18 04:59:44;;;;;;;0.30;0.20;;;3.60;72.00;;;;;;5113750;27;20277;-84
2022/04/18 05:02:11;;;;;;;0.30;0.20;;;3.70;71.40;;;;;;5111524;28;20202;-85
2022/04/18 05:04:38;;;;;;;0.65;0.60;;;3.80;70.20;;;;;;5111147;27;20200;-84
2022/04/18 05:07:05;;;;;;;0.30;0.30;;;3.90;69.20;;;;;;5111115;28;20281;-85
2022/04/18 05:09:32;;;;;;;0.30;0.20;;;4.00;68.40;;;;;;5113733;27;20193;-85
2022/04/18 05:11:59;;;;;;;0.52;0.40;;;4.10;67.60;;;;;;5111177;28;20214;-85
2022/04/18 05:14:26;;;;;;;0.30;0.20;;;4.20;67.00;;;;;;5116635;27;20218;-85
2022/04/18 05:16:54;;;;;;;0.30;0.30;;;4.20;67.10;;;;;;5111573;28;20262;-85
2022/04/18 05:19:21;;;;;;;0.30;0.20;;;4.30;67.40;;;;;;5112727;27;20198;-84
2022/04/18 05:21:48;;;;;;;0.30;0.20;;;4.50;63.90;;;;;;5110717;27;20283;-84
2022/04/18 05:24:14;;;;;;;0.70;0.47;;;4.70;61.10;;;;;;5114187;27;20197;-85
2022/04/18 05:26:41;;;;;;;0.30;0.20;;;4.80;61.70;;;;;;5108234;28;20198;-85
2022/04/18 05:29:15;;;;;;;1.85;0.90;;;4.90;60.00;;;;;;5115634;27;20288;-85
2022/04/18 05:31:42;;;;;;;0.50;0.40;;;5.10;59.90;;;;;;5109467;27;20206;-85
2022/04/18 05:34:10;;;;;;;0.30;0.20;;;5.30;59.50;;;;;;5111916;27;20247;-84
2022/04/18 05:36:37;;;;;;;0.30;0.20;;;5.30;58.20;;;;;;5113192;27;20980;-85
2022/04/18 05:39:04;;;;;;;0.40;0.30;;;5.50;57.80;;;;;;5111204;27;21650;-85
2022/04/18 05:41:31;;;;;;;0.30;0.20;;;5.50;57.50;;;;;;5111835;27;20611;-84
2022/04/18 05:44:01;;;;;;;0.70;0.32;;;5.60;57.20;;;;;;5110627;28;20194;-87
2022/04/18 05:46:30;;;;;;;0.30;0.20;;;5.70;57.20;;;;;;5109944;27;20553;-86
2022/04/18 05:48:59;;;;;;;0.40;0.30;;;5.80;57.70;;;;;;5111816;27;20923;-86
2022/04/18 05:51:27;;;;;;;0.40;0.40;;;5.90;57.70;;;;;;5107787;28;20797;-84
2022/04/18 05:53:54;;;;;;;0.50;0.50;;;6.00;57.30;;;;;;5109506;28;20742;-85
2022/04/18 05:56:29;;;;;;;0.30;0.20;;;6.00;57.30;;;;;;5109128;28;20583;-87
2022/04/18 05:59:04;;;;;;;0.30;0.22;;;6.20;56.70;;;;;;5109908;27;20212;-86
2022/04/18 06:01:45;;;;;;;0.30;0.20;;;6.20;57.50;;;;;;5110026;27;20190;-87
2022/04/18 06:04:13;;;;;;;0.73;0.55;;;6.30;56.50;;;;;;5111729;27;20255;-86
2022/04/18 06:06:54;;;;;;;0.30;0.20;;;6.30;57.10;;;;;;5110281;28;20202;-87
2022/04/18 06:09:23;;;;;;;0.73;0.65;;;6.40;56.50;;;;;;5112008;28;20305;-87
2022/04/18 06:11:51;;;;;;;0.57;0.45;;;7.40;56.30;;;;;;5114150;27;20271;-87
2022/04/18 06:17:10;;;;;;;0.30;0.20;;;6.80;56.00;;;;;;5107849;27;20195;-85
2022/04/18 06:19:37;;;;;;;0.30;0.30;;;6.80;55.20;;;;;;5108225;28;20198;-86
2022/04/18 06:22:05;;;;;;;0.63;0.30;;;7.00;55.60;;;;;;5111066;27;20971;-86
2022/04/18 06:24:32;;;;;;;0.30;0.20;;;7.10;55.50;;;;;;5114990;27;20213;-85
2022/04/18 06:26:59;;;;;;;0.40;0.35;;;7.20;55.30;;;;;;5125689;27;20209;-84
2022/04/18 06:29:26;;;;;;;0.30;0.20;;;7.20;55.90;;;;;;5113778;27;20282;-85
2022/04/18 06:31:53;;;;;;;1.25;1.13;;;7.30;55.10;;;;;;5118460;27;20266;-85
2022/04/18 06:34:20;;;;;;;1.88;0.50;;;7.40;55.60;;;;;;5108689;28;20194;-84
2022/04/18 06:36:47;;;;;;;0.30;0.20;;;7.50;55.40;;;;;;5110253;28;20204;-85
2022/04/18 06:39:15;;;;;;;0.30;0.20;;;7.60;54.20;;;;;;5110085;27;20199;-85
2022/04/18 06:41:42;;;;;;;0.40;0.32;;;7.70;54.20;;;;;;5109870;28;20194;-85
2022/04/18 06:44:09;;;;;;;0.30;0.20;;;8.00;54.50;;;;;;5109783;28;20259;-85
2022/04/18 06:46:37;;;;;;;0.30;0.10;;;8.00;54.00;;;;;;5110397;28;20200;-85
2022/04/18 06:49:03;;;;;;;0.30;0.25;;;8.00;54.00;;;;;;5111072;28;20291;-85
2022/04/18 06:51:30;;;;;;;0.63;0.40;;;8.20;53.80;;;;;;5111698;28;20252;-85
2022/04/18 06:53:57;;;;;;;0.50;0.30;;;8.30;53.10;;;;;;5112202;28;20753;-85
2022/04/18 06:59:10;;;;;;;0.40;0.30;;;8.40;52.80;;;;;;5108784;28;20236;-86
2022/04/18 07:01:37;;;;;;;0.50;0.47;;;8.60;53.50;;;;;;5097898;28;21257;-86
2022/04/18 07:04:04;;;;;;;0.60;0.40;;;8.70;53.60;;;;;;5101614;27;21276;-85
2022/04/18 07:06:31;;;;;;;0.38;0.28;;;8.80;53.40;;;;;;5101149;27;20197;-85
2022/04/18 07:08:58;;;;;;;0.30;0.20;;;9.00;52.40;;;;;;5103466;27;20197;-86
2022/04/18 07:11:26;;;;;;;0.30;0.20;;;9.00;53.30;;;;;;5109237;28;20246;-84
2022/04/18 07:13:53;;;;;;;0.50;0.35;;;9.20;51.90;;;;;;5108788;27;20678;-85
2022/04/18 07:16:20;;;;;;;0.30;0.20;;;9.20;51.40;;;;;;5111774;27;20689;-86
2022/04/18 07:18:47;;;;;;;0.65;0.60;;;9.20;51.70;;;;;;5108415;28;20259;-85
2022/04/18 07:21:15;;;;;;;0.30;0.30;;;9.30;52.50;;;;;;5099047;28;20295;-87
2022/04/18 07:23:43;;;;;;;0.50;0.35;;;9.40;52.30;;;;;;5102854;27;20209;-84
2022/04/18 07:26:10;;;;;;;0.50;0.30;;;9.40;52.50;;;;;;5109117;27;20244;-83
2022/04/18 07:28:39;;;;;;;0.68;0.50;;;9.60;52.20;;;;;;5114032;27;20271;-83
2022/04/18 07:31:07;;;;;;;0.77;0.68;;;9.70;52.20;;;;;;5104398;27;20565;-83
2022/04/18 07:33:35;;;;;;;0.80;0.80;;;9.70;51.90;;;;;;5102923;27;20229;-83
2022/04/18 07:36:03;;;;;;;2.35;0.50;;;9.80;51.50;;;;;;5098476;28;20301;-83
2022/04/18 07:41:15;;;;;;;0.45;0.35;;;10.10;50.70;;;;;;5106338;27;20202;-83
2022/04/18 07:43:43;;;;;;;0.30;0.20;;;10.30;50.60;;;;;;5112291;27;20221;-84
2022/04/18 07:46:10;;;;;;;0.30;0.10;;;10.40;50.50;;;;;;5108395;28;20186;-84
2022/04/18 07:48:37;;;;;;;0.30;0.10;;;10.50;49.80;;;;;;5110080;28;20282;-84
2022/04/18 07:53:49;;;;;;;0.30;0.20;;;10.80;50.40;;;;;;5109817;28;20655;-86
2022/04/18 07:56:30;;;;;;;0.30;0.20;;;11.00;50.60;;;;;;5111104;28;20247;-88
2022/04/18 07:58:59;;;;;;;0.40;0.20;;;11.20;49.30;;;;;;5111251;28;20638;-88
2022/04/18 08:01:29;;;;;;;0.65;0.40;;;11.30;49.50;;;;;;5110495;28;20634;-87
2022/04/18 08:04:01;;;;;;;0.80;0.43;;;11.40;49.30;;;;;;5108850;28;20556;-87
2022/04/18 08:07:10;;;;;;;0.50;0.30;;;11.40;48.30;;;;;;5107590;28;20650;-88
2022/04/18 08:09:38;;;;;;;0.60;0.60;;;11.50;48.50;;;;;;5110274;28;20624;-88
2022/04/18 08:12:12;;;;;;;0.50;0.40;;;11.60;49.00;;;;;;5110506;28;20632;-88
2022/04/18 08:14:40;;;;;;;0.30;0.30;;;11.70;49.70;;;;;;5123030;28;20761;-85
2022/04/18 08:17:08;;;;;;;0.50;0.40;;;11.80;48.80;;;;;;5111792;27;20729;-87
2022/04/18 08:19:35;;;;;;;0.30;0.20;;;12.00;48.00;;;;;;5119015;28;20623;-86
2022/04/18 08:22:03;;;;;;;1.20;1.10;;;12.10;48.30;;;;;;5121206;27;20635;-85
2022/04/18 08:24:30;;;;;;;0.30;0.20;;;12.10;47.20;;;;;;5108951;28;20673;-86
2022/04/18 08:26:57;;;;;;;0.40;0.40;;;12.10;47.80;;;;;;5114412;28;20638;-85
2022/04/18 08:29:24;;;;;;;0.77;0.40;;;12.20;47.10;;;;;;5114374;28;20645;-86
2022/04/18 08:31:53;;;;;;;0.80;0.70;;;12.20;47.70;;;;;;5115572;28;20745;-86
2022/04/18 08:34:19;;;;;;;0.60;0.50;;;12.40;48.20;;;;;;5128328;27;20774;-86
2022/04/18 08:36:46;;;;;;;0.30;0.20;;;12.40;47.10;;;;;;5115701;27;20636;-86
2022/04/18 08:39:13;;;;;;;1.90;0.73;;;12.50;46.90;;;;;;5119777;28;20615;-86
2022/04/18 08:41:44;;;;;;;0.33;0.30;;;12.50;46.80;;;;;;5113487;27;20643;-86
2022/04/18 08:44:12;;;;;;;0.50;0.30;;;12.50;47.20;;;;;;5124474;27;20623;-84
2022/04/18 08:46:40;;;;;;;0.30;0.20;;;12.60;46.60;;;;;;5110292;28;20640;-84
2022/04/18 08:54:41;;;;;;;0.80;0.80;;;12.70;45.80;;;;;;5099114;28;20672;-85
2022/04/18 08:57:07;;;;;;;0.73;0.30;;;12.90;45.70;;;;;;5111208;27;20670;-86
2022/04/18 08:59:34;;;;;;;0.30;0.30;;;12.80;45.30;;;;;;5129443;27;20634;-86
2022/04/18 09:02:02;;;;;;;0.73;0.73;;;12.90;45.00;;;;;;5133410;27;20614;-85
2022/04/18 09:04:31;;;;;;;0.50;0.40;;;13.00;44.90;;;;;;5120463;27;21226;-86
2022/04/18 09:07:08;;;;;;;0.40;0.40;;;13.00;44.90;;;;;;5113656;28;20676;-86
2022/04/18 09:09:37;;;;;;;0.67;0.67;;;13.10;44.80;;;;;;5132109;27;20627;-85
2022/04/18 09:12:05;;;;;;;0.63;0.47;;;13.10;44.70;;;;;;5114294;27;20615;-86
2022/04/18 09:14:35;;;;;;;0.77;0.40;;;13.20;44.10;;;;;;5120963;27;20659;-85
2022/04/18 09:17:02;;;;;;;0.60;0.60;;;13.30;44.30;;;;;;5130146;27;20670;-85
2022/04/18 09:19:34;;;;;;;6.63;0.87;;;13.40;45.20;;;;;;5122929;27;21006;-86
2022/04/18 09:22:03;;;;;;;0.40;0.30;;;13.50;44.20;;;;;;5118673;27;21179;-86
2022/04/18 09:24:34;;;;;;;1.07;0.70;;;13.50;44.70;;;;;;5132506;27;20632;-85
2022/04/18 09:27:07;;;;;;;0.30;0.20;;;13.50;44.50;;;;;;5130799;27;20626;-86
2022/04/18 09:29:38;;;;;;;0.30;0.30;;;13.50;44.30;;;;;;5115987;27;21354;-87
2022/04/18 09:32:09;;;;;;;1.10;1.00;;;13.70;45.30;;;;;;5115574;27;20611;-85
2022/04/18 09:34:37;;;;;;;0.70;0.53;;;13.90;45.00;;;;;;5130529;27;20659;-86
2022/04/18 09:37:14;;;;;;;3.70;1.17;;;14.00;44.60;;;;;;5118293;27;20649;-87
2022/04/18 09:39:43;;;;;;;2.27;1.07;;;13.90;43.40;;;;;;5098294;27;20674;-85
2022/04/18 09:42:11;;;;;;;0.80;0.67;;;14.10;43.70;;;;;;5112031;27;20654;-86
2022/04/18 09:44:38;;;;;;;0.73;0.60;;;14.20;44.00;;;;;;5124618;27;20624;-84
2022/04/18 09:47:05;;;;;;;0.73;0.50;;;14.10;44.10;;;;;;5130110;27;21066;-85
2022/04/18 09:49:39;;;;;;;0.50;0.33;;;14.20;43.80;;;;;;5114532;27;20636;-86
2022/04/18 09:52:08;;;;;;;1.03;0.93;;;14.30;43.70;;;;;;5110436;28;20654;-84
2022/04/18 09:54:35;;;;;;;0.30;0.20;;;14.40;42.70;;;;;;5110738;27;20765;-83
2022/04/18 09:57:05;;;;;;;0.70;0.70;;;14.60;41.20;;;;;;5111729;28;20729;-83
2022/04/18 09:59:33;;;;;;;0.63;0.60;;;14.40;41.00;;;;;;5126446;27;20660;-82
2022/04/18 10:02:00;;;;;;;1.13;0.83;;;14.40;41.80;;;;;;5110498;28;20719;-82
2022/04/18 10:04:28;;;;;;;0.37;0.27;;;14.40;41.90;;;;;;5110225;27;21290;-83
2022/04/18 10:06:57;;;;;;;0.47;0.30;;;14.60;42.50;;;;;;5109806;27;20668;-82
2022/04/18 10:09:25;;;;;;;1.17;0.50;;;14.60;41.20;;;;;;5109631;27;21279;-83
2022/04/18 10:11:52;;;;;;;0.73;0.70;;;14.80;41.90;;;;;;5110752;27;20619;-83
2022/04/18 10:14:19;;;;;;;2.30;0.77;;;14.70;42.10;;;;;;5121189;27;20669;-83
2022/04/18 10:16:46;;;;;;;0.40;0.40;;;14.90;41.80;;;;;;5119968;27;20707;-84
2022/04/18 10:19:24;;;;;;;0.50;0.50;;;14.90;41.90;;;;;;5109309;28;21191;-84
2022/04/18 10:21:59;;;;;;;0.77;0.70;;;15.10;42.00;;;;;;5127872;27;20610;-83
2022/04/18 10:24:49;;;;;;;0.67;0.50;;;14.90;41.80;;;;;;5113961;27;20658;-84
2022/04/18 10:27:41;;;;;;;0.43;0.30;;;15.10;42.30;;;;;;5109333;28;20650;-83
2022/04/18 10:30:10;;;;;;;0.30;0.20;;;15.20;41.40;;;;;;5090103;28;20659;-83
2022/04/18 10:32:39;;;;;;;0.67;0.67;;;15.30;40.40;;;;;;5100762;27;20648;-83
2022/04/18 10:35:07;;;;;;;0.50;0.37;;;15.40;41.30;;;;;;5110322;27;21031;-83
2022/04/18 10:37:34;;;;;;;0.47;0.40;;;15.50;42.00;;;;;;5102628;27;20715;-83
2022/04/18 10:40:05;;;;;;;0.40;0.40;;;15.50;40.00;;;;;;5106855;27;20655;-83
2022/04/18 10:42:34;;;;;;;1.57;0.90;;;15.60;41.20;;;;;;5101549;27;20617;-82
2022/04/18 10:45:09;;;;;;;0.40;0.30;;;15.70;40.90;;;;;;5123252;27;20632;-82
2022/04/18 10:48:05;;;;;;;0.60;0.50;;;15.80;40.90;;;;;;5124008;27;20740;-83
2022/04/18 10:50:37;;;;;;;0.43;0.33;;;15.90;41.10;;;;;;5103982;27;20752;-83
2022/04/18 10:53:35;;;;;;;0.50;0.37;;;16.00;40.40;;;;;;5111443;27;20644;-83
2022/04/18 10:56:12;;;;;;;1.53;0.83;;;16.00;40.10;;;;;;5107575;28;20661;-83
2022/04/18 10:58:41;;;;;;;0.40;0.20;;;16.00;40.50;;;;;;5118247;27;20647;-83
2022/04/18 11:01:09;;;;;;;0.80;0.77;;;16.10;40.80;;;;;;5125125;27;21052;-83
2022/04/18 11:03:41;;;;;;;1.57;1.33;;;16.50;39.50;;;;;;5121450;27;20711;-83
2022/04/18 11:06:12;;;;;;;1.57;0.83;;;16.30;39.50;;;;;;5110747;27;20672;-82
2022/04/18 11:08:40;;;;;;;1.13;0.80;;;16.30;39.50;;;;;;5127254;27;21106;-83
2022/04/18 11:11:08;;;;;;;0.40;0.40;;;16.60;40.10;;;;;;5109281;27;20640;-85
2022/04/18 11:13:43;;;;;;;0.60;0.30;;;16.80;40.10;;;;;;5107813;27;20657;-83
2022/04/18 11:17:04;;;;;;;0.30;0.20;;;16.50;38.70;;;;;;5115235;27;20913;-82
2022/04/18 11:19:32;;;;;;;1.37;0.70;;;16.70;40.00;;;;;;5083999;27;20639;-84
2022/04/18 11:22:17;;;;;;;0.87;0.43;;;17.10;39.50;;;;;;5115273;27;20716;-84
2022/04/18 11:24:54;;;;;;;0.30;0.27;;;17.20;38.60;;;;;;5111829;27;20637;-83
2022/04/18 11:27:23;;;;;;;0.40;0.30;;;17.50;39.00;;;;;;5108554;28;20623;-84
2022/04/18 11:29:54;;;;;;;1.13;0.50;;;17.70;39.50;;;;;;5121576;27;20746;-83
2022/04/18 11:32:23;;;;;;;1.03;0.90;;;17.90;38.50;;;;;;5114013;27;20603;-84
2022/04/18 11:34:52;;;;;;;0.87;0.50;;;18.10;37.60;;;;;;5121364;27;20695;-84
2022/04/18 11:37:24;;;;;;;0.73;0.73;;;18.20;37.40;;;;;;5113166;27;20647;-83
2022/04/18 11:39:52;;;;;;;0.50;0.50;;;18.40;37.70;;;;;;5118385;27;20625;-84
2022/04/18 11:42:20;;;;;;;1.00;0.27;;;18.70;37.40;;;;;;5126464;27;20633;-82
2022/04/18 11:44:49;;;;;;;1.33;0.40;;;19.10;36.90;;;;;;5115334;27;20646;-82
2022/04/18 11:47:21;;;;;;;1.00;0.87;;;19.30;36.60;;;;;;5108579;28;20628;-83
2022/04/18 11:49:50;;;;;;;0.80;0.30;;;19.90;36.20;;;;;;5105008;28;20651;-83
2022/04/18 11:52:23;;;;;;;0.60;0.60;;;20.20;36.40;;;;;;5116900;27;21248;-83
2022/04/18 11:54:55;;;;;;;0.50;0.50;;;20.80;35.20;;;;;;5119912;27;20778;-85
2022/04/18 11:57:22;;;;;;;0.97;0.70;;;21.30;35.70;;;;;;5127712;27;20626;-85
2022/04/18 11:59:49;;;;;;;1.90;0.60;;;22.20;34.90;;;;;;5124460;27;20736;-83
2022/04/18 12:07:52;;;;;;;1.30;0.80;;;24.20;33.50;;;;;;5106447;28;20642;-84
2022/04/18 12:10:25;;;;;;;1.10;0.83;;;24.50;33.40;;;;;;5107959;28;21197;-84
2022/04/18 12:12:52;;;;;;;1.40;0.63;;;25.40;31.80;;;;;;5109069;28;20630;-85
2022/04/18 12:15:22;;;;;;;0.70;0.70;;;25.50;31.10;;;;;;5101914;28;20644;-84
2022/04/18 12:17:52;;;;;;;0.80;0.70;;;25.80;30.60;;;;;;5088155;28;20620;-86
2022/04/18 12:20:24;;;;;;;1.17;0.97;;;26.20;30.60;;;;;;5128139;27;20937;-85
2022/04/18 12:22:53;;;;;;;1.07;0.60;;;25.90;30.10;;;;;;5127977;27;20714;-86
2022/04/18 12:25:22;;;;;;;0.83;0.83;;;25.90;31.10;;;;;;5119393;28;20666;-86
2022/04/18 12:27:49;;;;;;;0.80;0.80;;;25.80;30.30;;;;;;5111693;27;20624;-84
2022/04/18 12:30:17;;;;;;;0.60;0.60;;;25.40;29.60;;;;;;5119439;28;20650;-82
2022/04/18 12:32:47;;;;;;;0.67;0.67;;;25.70;30.90;;;;;;5125955;27;20647;-82
2022/04/18 12:35:16;;;;;;;0.67;0.67;;;26.30;29.90;;;;;;5122449;27;20633;-83
2022/04/18 12:37:48;;;;;;;0.53;0.50;;;27.00;29.20;;;;;;5115267;27;20659;-83
2022/04/18 12:40:16;;;;;;;1.00;1.00;;;27.10;29.40;;;;;;5110746;27;20676;-83
2022/04/18 12:42:53;;;;;;;1.80;1.37;;;27.30;28.90;;;;;;5090354;28;20616;-83
2022/04/18 12:45:20;;;;;;;1.40;0.80;;;26.80;29.30;;;;;;5104910;28;20698;-83
2022/04/18 12:47:47;;;;;;;0.70;0.70;;;27.20;29.30;;;;;;5114126;27;20656;-82
2022/04/18 12:50:15;;;;;;;0.57;0.50;;;27.50;29.50;;;;;;5127675;27;20655;-85
2022/04/18 12:52:47;;;;;;;0.80;0.80;;;27.80;28.80;;;;;;5110399;28;20620;-86
2022/04/18 12:55:14;;;;;;;1.63;1.00;;;28.00;29.00;;;;;;5089448;28;20635;-86
2022/04/18 12:57:46;;;;;;;0.80;0.70;;;28.10;28.70;;;;;;5126596;27;20665;-86
2022/04/18 13:00:15;;;;;;;0.60;0.60;;;28.30;29.20;;;;;;5125932;27;20647;-86
2022/04/18 13:02:56;;;;;;;0.90;0.67;;;28.40;29.00;;;;;;5127690;27;20631;-85
2022/04/18 13:05:27;;;;;;;2.03;1.30;;;28.00;28.70;;;;;;5109861;27;20682;-82
2022/04/18 13:07:58;;;;;;;0.57;0.57;;;27.90;29.30;;;;;;5110988;27;20713;-84
2022/04/18 13:10:29;;;;;;;0.80;0.80;;;28.80;28.80;;;;;;5124158;27;20634;-82
2022/04/18 13:13:05;;;;;;;1.17;1.07;;;29.10;28.40;;;;;;5127332;27;20993;-85
2022/04/18 13:15:32;;;;;;;0.77;0.77;;;29.10;28.50;;;;;;5117658;27;21085;-83
2022/04/18 13:18:04;;;;;;;0.60;0.60;;;29.20;28.80;;;;;;5119826;27;20719;-82
2022/04/18 13:20:34;;;;;;;0.83;0.83;;;29.30;28.10;;;;;;5123622;27;20980;-82
2022/04/18 13:23:02;;;;;;;1.00;1.00;;;29.30;28.10;;;;;;5128023;27;20659;-82
2022/04/18 13:25:29;;;;;;;1.23;0.80;;;29.50;27.90;;;;;;5111554;28;20758;-82
2022/04/18 13:27:57;;;;;;;0.80;0.80;;;29.60;27.50;;;;;;5117922;27;20623;-83
2022/04/18 13:30:25;;;;;;;0.70;0.53;;;29.70;27.80;;;;;;5123657;27;20655;-83
2022/04/18 13:32:52;;;;;;;0.73;0.73;;;29.50;27.90;;;;;;5129781;27;20622;-82